sensor_id;sensor_type;location;lat;lon;timestamp;temperature;humidity
53653;DHT22;39553;52.954;5.932;2022-07-06T00:01:29;14.90;99.90
53653;DHT22;39553;52.954;5.932;2022-07-06T00:03:55;14.80;99.90
53653;DHT22;39553;52.954;5.932;2022-07-06T00:06:21;14.80;99.90
53653;DHT22;39553;52.954;5.932;2022-07-06T00:08:47;14.80;99.90
53653;DHT22;39553;52.954;5.932;2022-07-06T00:11:13;14.80;99.90
53653;DHT22;39553;52.954;5.932;2022-07-06T00:13:39;14.80;99.90
53653;DHT22;39553;52.954;5.932;2022-07-06T00:16:04;14.80;99.90
53653;DHT22;39553;52.954;5.932;2022-07-06T00:18:30;14.80;99.90
53653;DHT22;39553;52.954;5.932;2022-07-06T00:20:56;14.80;99.90
53653;DHT22;39553;52.954;5.932;2022-07-06T00:23:22;14.80;99.90
53653;DHT22;39553;52.954;5.932;2022-07-06T00:25:48;14.80;99.90
53653;DHT22;39553;52.954;5.932;2022-07-06T00:28:14;14.80;99.90
53653;DHT22;39553;52.954;5.932;2022-07-06T00:30:40;14.80;99.90
53653;DHT22;39553;52.954;5.932;2022-07-06T00:33:06;14.80;99.90
53653;DHT22;39553;52.954;5.932;2022-07-06T00:35:32;14.80;99.90
53653;DHT22;39553;52.954;5.932;2022-07-06T00:37:58;14.80;99.90
53653;DHT22;39553;52.954;5.932;2022-07-06T00:40:24;14.80;99.90
53653;DHT22;39553;52.954;5.932;2022-07-06T00:42:51;14.80;99.90
53653;DHT22;39553;52.954;5.932;2022-07-06T00:45:18;14.90;99.90
53653;DHT22;39553;52.954;5.932;2022-07-06T00:47:44;14.90;99.90
53653;DHT22;39553;52.954;5.932;2022-07-06T00:50:13;14.90;99.90
53653;DHT22;39553;52.954;5.932;2022-07-06T00:52:44;14.90;99.90
53653;DHT22;39553;52.954;5.932;2022-07-06T00:55:10;14.90;99.90
53653;DHT22;39553;52.954;5.932;2022-07-06T00:57:36;14.90;99.90
53653;DHT22;39553;52.954;5.932;2022-07-06T01:00:07;15.00;99.90
53653;DHT22;39553;52.954;5.932;2022-07-06T01:02:35;15.00;99.90
53653;DHT22;39553;52.954;5.932;2022-07-06T01:05:03;14.90;99.90
53653;DHT22;39553;52.954;5.932;2022-07-06T01:07:29;14.90;99.90
53653;DHT22;39553;52.954;5.932;2022-07-06T01:09:55;15.00;99.90
53653;DHT22;39553;52.954;5.932;2022-07-06T01:12:21;15.00;99.90
53653;DHT22;39553;52.954;5.932;2022-07-06T01:14:49;15.00;99.90
53653;DHT22;39553;52.954;5.932;2022-07-06T01:17:15;15.00;99.90
53653;DHT22;39553;52.954;5.932;2022-07-06T01:19:42;14.90;99.90
53653;DHT22;39553;52.954;5.932;2022-07-06T01:22:09;15.00;99.90
53653;DHT22;39553;52.954;5.932;2022-07-06T01:24:35;15.00;99.90
53653;DHT22;39553;52.954;5.932;2022-07-06T01:27:02;15.00;99.90
53653;DHT22;39553;52.954;5.932;2022-07-06T01:29:29;15.00;99.90
53653;DHT22;39553;52.954;5.932;2022-07-06T01:31:54;15.00;99.90
53653;DHT22;39553;52.954;5.932;2022-07-06T01:34:21;15.00;99.90
53653;DHT22;39553;52.954;5.932;2022-07-06T01:36:47;15.00;99.90
53653;DHT22;39553;52.954;5.932;2022-07-06T01:39:13;15.00;99.90
53653;DHT22;39553;52.954;5.932;2022-07-06T01:41:39;15.00;99.90
53653;DHT22;39553;52.954;5.932;2022-07-06T01:44:05;15.00;99.90
53653;DHT22;39553;52.954;5.932;2022-07-06T01:46:31;15.00;99.90
53653;DHT22;39553;52.954;5.932;2022-07-06T01:48:57;15.00;99.90
53653;DHT22;39553;52.954;5.932;2022-07-06T01:51:23;14.90;99.90
53653;DHT22;39553;52.954;5.932;2022-07-06T01:53:50;15.00;99.90
53653;DHT22;39553;52.954;5.932;2022-07-06T01:56:16;14.90;99.90
53653;DHT22;39553;52.954;5.932;2022-07-06T01:58:46;15.00;99.90
53653;DHT22;39553;52.954;5.932;2022-07-06T02:01:14;14.90;99.90
53653;DHT22;39553;52.954;5.932;2022-07-06T02:03:40;14.90;99.90
53653;DHT22;39553;52.954;5.932;2022-07-06T02:06:07;14.80;99.90
53653;DHT22;39553;52.954;5.932;2022-07-06T02:08:34;14.80;99.90
53653;DHT22;39553;52.954;5.932;2022-07-06T02:11:00;14.80;99.90
53653;DHT22;39553;52.954;5.932;2022-07-06T02:13:25;14.80;99.90
53653;DHT22;39553;52.954;5.932;2022-07-06T02:15:52;14.80;99.90
53653;DHT22;39553;52.954;5.932;2022-07-06T02:18:17;14.80;99.90
53653;DHT22;39553;52.954;5.932;2022-07-06T02:20:43;14.80;99.90
53653;DHT22;39553;52.954;5.932;2022-07-06T02:23:09;14.80;99.90
53653;DHT22;39553;52.954;5.932;2022-07-06T02:25:35;14.80;99.90
53653;DHT22;39553;52.954;5.932;2022-07-06T02:28:01;14.80;99.90
53653;DHT22;39553;52.954;5.932;2022-07-06T02:30:26;14.80;99.90
53653;DHT22;39553;52.954;5.932;2022-07-06T02:32:52;14.80;99.90
53653;DHT22;39553;52.954;5.932;2022-07-06T02:35:18;14.80;99.90
53653;DHT22;39553;52.954;5.932;2022-07-06T02:37:43;14.80;99.90
53653;DHT22;39553;52.954;5.932;2022-07-06T02:40:09;14.80;99.90
53653;DHT22;39553;52.954;5.932;2022-07-06T02:42:35;14.80;99.90
53653;DHT22;39553;52.954;5.932;2022-07-06T02:45:01;14.90;99.90
53653;DHT22;39553;52.954;5.932;2022-07-06T02:47:27;14.90;99.90
53653;DHT22;39553;52.954;5.932;2022-07-06T02:49:53;14.90;99.90
53653;DHT22;39553;52.954;5.932;2022-07-06T02:52:19;14.90;99.90
53653;DHT22;39553;52.954;5.932;2022-07-06T02:54:45;14.90;99.90
53653;DHT22;39553;52.954;5.932;2022-07-06T02:57:11;14.90;99.90
53653;DHT22;39553;52.954;5.932;2022-07-06T02:59:37;14.80;99.90
53653;DHT22;39553;52.954;5.932;2022-07-06T03:02:07;14.70;99.90
53653;DHT22;39553;52.954;5.932;2022-07-06T03:04:33;14.70;99.90
53653;DHT22;39553;52.954;5.932;2022-07-06T03:06:59;14.60;99.90
53653;DHT22;39553;52.954;5.932;2022-07-06T03:09:25;14.60;99.90
53653;DHT22;39553;52.954;5.932;2022-07-06T03:11:51;14.60;99.90
53653;DHT22;39553;52.954;5.932;2022-07-06T03:14:17;14.60;99.90
53653;DHT22;39553;52.954;5.932;2022-07-06T03:16:42;14.50;99.90
53653;DHT22;39553;52.954;5.932;2022-07-06T03:19:08;14.50;99.90
53653;DHT22;39553;52.954;5.932;2022-07-06T03:21:34;14.50;99.90
53653;DHT22;39553;52.954;5.932;2022-07-06T03:24:00;14.50;99.90
53653;DHT22;39553;52.954;5.932;2022-07-06T03:26:25;14.50;99.90
53653;DHT22;39553;52.954;5.932;2022-07-06T03:28:51;14.50;99.90
53653;DHT22;39553;52.954;5.932;2022-07-06T03:31:17;14.50;99.90
53653;DHT22;39553;52.954;5.932;2022-07-06T03:33:43;14.50;99.90
53653;DHT22;39553;52.954;5.932;2022-07-06T03:36:09;14.40;99.90
53653;DHT22;39553;52.954;5.932;2022-07-06T03:38:35;14.40;99.90
53653;DHT22;39553;52.954;5.932;2022-07-06T03:41:01;14.40;99.90
53653;DHT22;39553;52.954;5.932;2022-07-06T03:43:26;14.40;99.90
53653;DHT22;39553;52.954;5.932;2022-07-06T03:45:52;14.40;99.90
53653;DHT22;39553;52.954;5.932;2022-07-06T03:48:18;14.40;99.90
53653;DHT22;39553;52.954;5.932;2022-07-06T03:50:44;14.40;99.90
53653;DHT22;39553;52.954;5.932;2022-07-06T03:53:09;14.40;99.90
53653;DHT22;39553;52.954;5.932;2022-07-06T03:55:35;14.40;99.90
53653;DHT22;39553;52.954;5.932;2022-07-06T03:58:01;14.30;99.90
53653;DHT22;39553;52.954;5.932;2022-07-06T04:00:27;14.30;99.90
53653;DHT22;39553;52.954;5.932;2022-07-06T04:02:52;14.40;99.90
53653;DHT22;39553;52.954;5.932;2022-07-06T04:05:18;14.60;99.90
53653;DHT22;39553;52.954;5.932;2022-07-06T04:07:47;14.70;99.90
53653;DHT22;39553;52.954;5.932;2022-07-06T04:10:14;15.00;99.90
53653;DHT22;39553;52.954;5.932;2022-07-06T04:12:44;15.20;99.90
53653;DHT22;39553;52.954;5.932;2022-07-06T04:15:11;15.40;99.90
53653;DHT22;39553;52.954;5.932;2022-07-06T04:17:38;15.40;99.90
53653;DHT22;39553;52.954;5.932;2022-07-06T04:20:20;15.50;99.90
53653;DHT22;39553;52.954;5.932;2022-07-06T04:22:46;15.70;99.90
53653;DHT22;39553;52.954;5.932;2022-07-06T04:25:12;15.80;99.90
53653;DHT22;39553;52.954;5.932;2022-07-06T04:27:38;15.90;99.90
53653;DHT22;39553;52.954;5.932;2022-07-06T04:30:05;16.00;99.90
53653;DHT22;39553;52.954;5.932;2022-07-06T04:32:31;16.00;99.90
53653;DHT22;39553;52.954;5.932;2022-07-06T04:34:57;15.90;99.90
53653;DHT22;39553;52.954;5.932;2022-07-06T04:37:23;16.00;99.90
53653;DHT22;39553;52.954;5.932;2022-07-06T04:39:49;16.20;99.90
53653;DHT22;39553;52.954;5.932;2022-07-06T04:42:14;16.20;99.90
53653;DHT22;39553;52.954;5.932;2022-07-06T04:44:40;16.30;99.90
53653;DHT22;39553;52.954;5.932;2022-07-06T04:47:06;16.40;99.90
53653;DHT22;39553;52.954;5.932;2022-07-06T04:49:32;16.70;99.90
53653;DHT22;39553;52.954;5.932;2022-07-06T04:51:58;16.80;99.90
53653;DHT22;39553;52.954;5.932;2022-07-06T04:54:23;16.40;99.90
53653;DHT22;39553;52.954;5.932;2022-07-06T04:56:49;16.00;99.90
53653;DHT22;39553;52.954;5.932;2022-07-06T04:59:18;15.60;99.90
53653;DHT22;39553;52.954;5.932;2022-07-06T05:01:43;15.20;99.90
53653;DHT22;39553;52.954;5.932;2022-07-06T05:04:09;15.00;99.90
53653;DHT22;39553;52.954;5.932;2022-07-06T05:06:35;14.80;99.90
53653;DHT22;39553;52.954;5.932;2022-07-06T05:09:01;14.80;99.90
53653;DHT22;39553;52.954;5.932;2022-07-06T05:11:27;14.70;99.90
53653;DHT22;39553;52.954;5.932;2022-07-06T05:13:53;14.70;99.90
53653;DHT22;39553;52.954;5.932;2022-07-06T05:16:20;14.70;99.90
53653;DHT22;39553;52.954;5.932;2022-07-06T05:18:46;14.70;99.90
53653;DHT22;39553;52.954;5.932;2022-07-06T05:21:12;14.70;99.90
53653;DHT22;39553;52.954;5.932;2022-07-06T05:23:38;14.70;99.90
53653;DHT22;39553;52.954;5.932;2022-07-06T05:26:03;14.80;99.90
53653;DHT22;39553;52.954;5.932;2022-07-06T05:28:29;14.80;99.90
53653;DHT22;39553;52.954;5.932;2022-07-06T05:30:55;14.80;99.90
53653;DHT22;39553;52.954;5.932;2022-07-06T05:33:21;14.80;99.90
53653;DHT22;39553;52.954;5.932;2022-07-06T05:35:46;14.80;99.90
53653;DHT22;39553;52.954;5.932;2022-07-06T05:38:12;14.90;99.90
53653;DHT22;39553;52.954;5.932;2022-07-06T05:40:38;14.90;99.90
53653;DHT22;39553;52.954;5.932;2022-07-06T05:43:03;15.00;99.90
53653;DHT22;39553;52.954;5.932;2022-07-06T05:45:30;15.00;99.90
53653;DHT22;39553;52.954;5.932;2022-07-06T05:47:56;15.00;99.90
53653;DHT22;39553;52.954;5.932;2022-07-06T05:50:40;15.00;99.90
53653;DHT22;39553;52.954;5.932;2022-07-06T05:53:07;15.00;99.90
53653;DHT22;39553;52.954;5.932;2022-07-06T05:55:33;15.10;99.90
53653;DHT22;39553;52.954;5.932;2022-07-06T05:57:59;15.20;99.90
53653;DHT22;39553;52.954;5.932;2022-07-06T06:00:28;15.20;99.90
53653;DHT22;39553;52.954;5.932;2022-07-06T06:02:53;15.20;99.90
53653;DHT22;39553;52.954;5.932;2022-07-06T06:05:20;15.30;99.90
53653;DHT22;39553;52.954;5.932;2022-07-06T06:07:46;15.30;99.90
53653;DHT22;39553;52.954;5.932;2022-07-06T06:10:14;15.40;99.90
53653;DHT22;39553;52.954;5.932;2022-07-06T06:12:41;15.50;99.90
53653;DHT22;39553;52.954;5.932;2022-07-06T06:15:08;16.10;99.90
53653;DHT22;39553;52.954;5.932;2022-07-06T06:17:35;15.70;99.90
53653;DHT22;39553;52.954;5.932;2022-07-06T06:20:02;16.10;99.90
53653;DHT22;39553;52.954;5.932;2022-07-06T06:22:28;16.60;99.90
53653;DHT22;39553;52.954;5.932;2022-07-06T06:24:53;17.10;99.90
53653;DHT22;39553;52.954;5.932;2022-07-06T06:27:19;17.50;99.90
53653;DHT22;39553;52.954;5.932;2022-07-06T06:29:45;17.50;99.90
53653;DHT22;39553;52.954;5.932;2022-07-06T06:32:11;17.60;99.90
53653;DHT22;39553;52.954;5.932;2022-07-06T06:34:39;17.70;99.90
53653;DHT22;39553;52.954;5.932;2022-07-06T06:37:04;17.50;99.90
53653;DHT22;39553;52.954;5.932;2022-07-06T06:39:30;17.30;99.90
53653;DHT22;39553;52.954;5.932;2022-07-06T06:41:56;17.70;99.90
53653;DHT22;39553;52.954;5.932;2022-07-06T06:44:22;17.90;99.90
53653;DHT22;39553;52.954;5.932;2022-07-06T06:46:49;18.20;99.90
53653;DHT22;39553;52.954;5.932;2022-07-06T06:49:16;18.20;99.90
53653;DHT22;39553;52.954;5.932;2022-07-06T06:51:42;18.10;99.90
53653;DHT22;39553;52.954;5.932;2022-07-06T06:54:07;18.10;99.90
53653;DHT22;39553;52.954;5.932;2022-07-06T06:56:33;18.20;99.90
53653;DHT22;39553;52.954;5.932;2022-07-06T06:58:59;18.60;99.90
53653;DHT22;39553;52.954;5.932;2022-07-06T07:01:26;19.20;99.90
53653;DHT22;39553;52.954;5.932;2022-07-06T07:03:52;19.50;99.90
53653;DHT22;39553;52.954;5.932;2022-07-06T07:06:18;19.50;99.90
53653;DHT22;39553;52.954;5.932;2022-07-06T07:08:44;19.40;99.90
53653;DHT22;39553;52.954;5.932;2022-07-06T07:11:09;18.90;99.90
53653;DHT22;39553;52.954;5.932;2022-07-06T07:13:35;19.40;99.90
53653;DHT22;39553;52.954;5.932;2022-07-06T07:16:01;19.90;99.90
53653;DHT22;39553;52.954;5.932;2022-07-06T07:18:26;19.90;99.90
53653;DHT22;39553;52.954;5.932;2022-07-06T07:20:52;20.00;99.90
53653;DHT22;39553;52.954;5.932;2022-07-06T07:23:18;20.40;99.90
53653;DHT22;39553;52.954;5.932;2022-07-06T07:25:44;20.30;99.90
53653;DHT22;39553;52.954;5.932;2022-07-06T07:28:10;20.20;99.30
53653;DHT22;39553;52.954;5.932;2022-07-06T07:30:35;20.10;99.90
53653;DHT22;39553;52.954;5.932;2022-07-06T07:33:01;20.00;99.90
53653;DHT22;39553;52.954;5.932;2022-07-06T07:35:28;19.90;99.90
53653;DHT22;39553;52.954;5.932;2022-07-06T07:37:53;20.00;99.90
53653;DHT22;39553;52.954;5.932;2022-07-06T07:40:19;19.60;99.90
53653;DHT22;39553;52.954;5.932;2022-07-06T07:42:45;19.20;99.90
53653;DHT22;39553;52.954;5.932;2022-07-06T07:45:11;18.80;99.90
53653;DHT22;39553;52.954;5.932;2022-07-06T07:47:38;18.80;99.90
53653;DHT22;39553;52.954;5.932;2022-07-06T07:50:04;19.00;99.90
53653;DHT22;39553;52.954;5.932;2022-07-06T07:52:30;19.30;99.90
53653;DHT22;39553;52.954;5.932;2022-07-06T07:54:57;19.40;99.90
53653;DHT22;39553;52.954;5.932;2022-07-06T07:57:23;19.70;99.90
53653;DHT22;39553;52.954;5.932;2022-07-06T07:59:48;20.10;99.90
53653;DHT22;39553;52.954;5.932;2022-07-06T08:02:15;20.30;99.30
53653;DHT22;39553;52.954;5.932;2022-07-06T08:04:40;20.40;99.90
53653;DHT22;39553;52.954;5.932;2022-07-06T08:07:06;20.70;99.90
53653;DHT22;39553;52.954;5.932;2022-07-06T08:09:32;20.40;99.80
53653;DHT22;39553;52.954;5.932;2022-07-06T08:11:58;20.00;99.90
53653;DHT22;39553;52.954;5.932;2022-07-06T08:14:24;19.60;99.90
53653;DHT22;39553;52.954;5.932;2022-07-06T08:16:51;19.10;99.90
53653;DHT22;39553;52.954;5.932;2022-07-06T08:19:16;18.80;99.90
53653;DHT22;39553;52.954;5.932;2022-07-06T08:21:43;18.80;99.90
53653;DHT22;39553;52.954;5.932;2022-07-06T08:24:09;19.50;99.90
53653;DHT22;39553;52.954;5.932;2022-07-06T08:26:35;20.00;99.90
53653;DHT22;39553;52.954;5.932;2022-07-06T08:29:00;20.10;99.90
53653;DHT22;39553;52.954;5.932;2022-07-06T08:31:27;19.60;99.90
53653;DHT22;39553;52.954;5.932;2022-07-06T08:33:53;18.80;99.90
53653;DHT22;39553;52.954;5.932;2022-07-06T08:36:20;18.20;99.90
53653;DHT22;39553;52.954;5.932;2022-07-06T08:38:47;18.40;99.90
53653;DHT22;39553;52.954;5.932;2022-07-06T08:41:14;19.00;99.90
53653;DHT22;39553;52.954;5.932;2022-07-06T08:43:40;19.30;99.90
53653;DHT22;39553;52.954;5.932;2022-07-06T08:46:07;19.40;99.90
53653;DHT22;39553;52.954;5.932;2022-07-06T08:48:37;19.00;99.90
53653;DHT22;39553;52.954;5.932;2022-07-06T08:51:06;18.40;99.90
53653;DHT22;39553;52.954;5.932;2022-07-06T08:53:32;18.00;99.90
53653;DHT22;39553;52.954;5.932;2022-07-06T08:55:59;17.80;99.90
53653;DHT22;39553;52.954;5.932;2022-07-06T08:58:26;17.70;99.90
53653;DHT22;39553;52.954;5.932;2022-07-06T09:00:56;17.60;99.90
53653;DHT22;39553;52.954;5.932;2022-07-06T09:03:23;17.70;99.90
53653;DHT22;39553;52.954;5.932;2022-07-06T09:05:50;18.00;99.90
53653;DHT22;39553;52.954;5.932;2022-07-06T09:08:18;19.20;99.90
53653;DHT22;39553;52.954;5.932;2022-07-06T09:10:44;19.60;99.90
53653;DHT22;39553;52.954;5.932;2022-07-06T09:13:10;20.10;99.90
53653;DHT22;39553;52.954;5.932;2022-07-06T09:15:37;20.00;99.20
53653;DHT22;39553;52.954;5.932;2022-07-06T09:18:06;19.20;99.40
53653;DHT22;39553;52.954;5.932;2022-07-06T09:20:33;19.10;99.90
53653;DHT22;39553;52.954;5.932;2022-07-06T09:23:04;19.70;99.90
53653;DHT22;39553;52.954;5.932;2022-07-06T09:25:31;20.50;99.90
53653;DHT22;39553;52.954;5.932;2022-07-06T09:27:58;20.90;99.70
53653;DHT22;39553;52.954;5.932;2022-07-06T09:30:25;20.80;99.10
53653;DHT22;39553;52.954;5.932;2022-07-06T09:32:55;20.00;98.70
53653;DHT22;39553;52.954;5.932;2022-07-06T09:35:28;19.60;99.70
53653;DHT22;39553;52.954;5.932;2022-07-06T09:40:36;19.90;99.90
53653;DHT22;39553;52.954;5.932;2022-07-06T09:43:16;20.50;99.50
53653;DHT22;39553;52.954;5.932;2022-07-06T09:45:46;20.60;98.80
53653;DHT22;39553;52.954;5.932;2022-07-06T09:48:16;19.90;99.30
53653;DHT22;39553;52.954;5.932;2022-07-06T09:50:51;20.00;99.90
53653;DHT22;39553;52.954;5.932;2022-07-06T09:53:21;20.50;99.00
53653;DHT22;39553;52.954;5.932;2022-07-06T09:55:50;20.50;99.30
53653;DHT22;39553;52.954;5.932;2022-07-06T09:58:16;20.30;98.70
53653;DHT22;39553;52.954;5.932;2022-07-06T10:00:43;20.60;98.60
53653;DHT22;39553;52.954;5.932;2022-07-06T10:03:11;20.10;98.00
53653;DHT22;39553;52.954;5.932;2022-07-06T10:05:42;19.90;98.30
53653;DHT22;39553;52.954;5.932;2022-07-06T10:08:09;19.60;98.40
53653;DHT22;39553;52.954;5.932;2022-07-06T10:10:37;19.30;99.70
53653;DHT22;39553;52.954;5.932;2022-07-06T10:13:03;19.00;99.90
53653;DHT22;39553;52.954;5.932;2022-07-06T10:15:32;18.70;99.90
53653;DHT22;39553;52.954;5.932;2022-07-06T10:18:05;18.90;99.90
53653;DHT22;39553;52.954;5.932;2022-07-06T10:20:32;19.20;99.90
53653;DHT22;39553;52.954;5.932;2022-07-06T10:23:00;19.60;99.90
53653;DHT22;39553;52.954;5.932;2022-07-06T10:25:27;20.10;99.80
53653;DHT22;39553;52.954;5.932;2022-07-06T10:27:53;20.40;99.90
53653;DHT22;39553;52.954;5.932;2022-07-06T10:30:19;20.80;98.90
53653;DHT22;39553;52.954;5.932;2022-07-06T10:32:49;20.80;98.40
53653;DHT22;39553;52.954;5.932;2022-07-06T10:35:19;20.50;98.20
53653;DHT22;39553;52.954;5.932;2022-07-06T10:37:46;20.20;98.90
53653;DHT22;39553;52.954;5.932;2022-07-06T10:40:35;20.40;99.70
53653;DHT22;39553;52.954;5.932;2022-07-06T10:43:20;20.30;99.30
53653;DHT22;39553;52.954;5.932;2022-07-06T10:50:42;21.20;95.90
53653;DHT22;39553;52.954;5.932;2022-07-06T10:53:24;20.70;96.90
53653;DHT22;39553;52.954;5.932;2022-07-06T10:55:52;20.60;96.80
53653;DHT22;39553;52.954;5.932;2022-07-06T10:58:47;20.90;96.80
53653;DHT22;39553;52.954;5.932;2022-07-06T11:01:14;20.70;97.00
53653;DHT22;39553;52.954;5.932;2022-07-06T11:03:43;20.60;96.60
53653;DHT22;39553;52.954;5.932;2022-07-06T11:06:13;21.00;97.20
53653;DHT22;39553;52.954;5.932;2022-07-06T11:09:03;21.10;96.50
53653;DHT22;39553;52.954;5.932;2022-07-06T11:14:11;21.40;95.00
53653;DHT22;39553;52.954;5.932;2022-07-06T11:16:38;21.70;93.60
53653;DHT22;39553;52.954;5.932;2022-07-06T11:19:10;22.10;96.00
53653;DHT22;39553;52.954;5.932;2022-07-06T11:21:43;22.30;95.30
53653;DHT22;39553;52.954;5.932;2022-07-06T11:24:13;22.50;94.50
53653;DHT22;39553;52.954;5.932;2022-07-06T11:26:39;22.60;94.60
53653;DHT22;39553;52.954;5.932;2022-07-06T11:29:07;22.20;94.00
53653;DHT22;39553;52.954;5.932;2022-07-06T11:31:40;22.10;94.20
53653;DHT22;39553;52.954;5.932;2022-07-06T11:34:07;22.00;94.10
53653;DHT22;39553;52.954;5.932;2022-07-06T11:36:34;21.20;92.90
53653;DHT22;39553;52.954;5.932;2022-07-06T11:39:00;20.80;94.40
53653;DHT22;39553;52.954;5.932;2022-07-06T11:41:25;20.80;95.20
53653;DHT22;39553;52.954;5.932;2022-07-06T11:43:51;21.00;96.00
53653;DHT22;39553;52.954;5.932;2022-07-06T11:46:30;20.80;96.90
53653;DHT22;39553;52.954;5.932;2022-07-06T11:48:58;21.00;96.90
53653;DHT22;39553;52.954;5.932;2022-07-06T11:51:27;21.10;96.80
53653;DHT22;39553;52.954;5.932;2022-07-06T11:53:55;21.10;96.10
53653;DHT22;39553;52.954;5.932;2022-07-06T11:56:22;20.90;96.50
53653;DHT22;39553;52.954;5.932;2022-07-06T11:58:52;21.20;96.30
53653;DHT22;39553;52.954;5.932;2022-07-06T12:01:17;21.20;96.00
53653;DHT22;39553;52.954;5.932;2022-07-06T12:03:44;21.50;95.90
53653;DHT22;39553;52.954;5.932;2022-07-06T12:06:28;21.20;96.20
53653;DHT22;39553;52.954;5.932;2022-07-06T12:08:57;21.00;96.20
53653;DHT22;39553;52.954;5.932;2022-07-06T12:11:28;20.90;96.60
53653;DHT22;39553;52.954;5.932;2022-07-06T12:14:03;20.90;96.30
53653;DHT22;39553;52.954;5.932;2022-07-06T12:16:38;20.80;96.70
53653;DHT22;39553;52.954;5.932;2022-07-06T12:19:05;20.60;96.60
53653;DHT22;39553;52.954;5.932;2022-07-06T12:21:32;20.60;96.60
53653;DHT22;39553;52.954;5.932;2022-07-06T12:23:58;20.70;96.50
53653;DHT22;39553;52.954;5.932;2022-07-06T12:26:26;20.60;96.80
53653;DHT22;39553;52.954;5.932;2022-07-06T12:29:03;20.50;96.60
53653;DHT22;39553;52.954;5.932;2022-07-06T12:31:36;20.50;96.60
53653;DHT22;39553;52.954;5.932;2022-07-06T12:34:03;20.50;95.40
53653;DHT22;39553;52.954;5.932;2022-07-06T12:36:29;20.40;94.70
53653;DHT22;39553;52.954;5.932;2022-07-06T12:38:55;20.50;95.70
53653;DHT22;39553;52.954;5.932;2022-07-06T12:41:31;20.60;93.90
53653;DHT22;39553;52.954;5.932;2022-07-06T12:44:08;20.60;95.10
53653;DHT22;39553;52.954;5.932;2022-07-06T12:46:39;20.60;95.00
53653;DHT22;39553;52.954;5.932;2022-07-06T12:49:21;20.50;94.70
53653;DHT22;39553;52.954;5.932;2022-07-06T12:51:51;20.50;94.70
53653;DHT22;39553;52.954;5.932;2022-07-06T12:54:17;20.60;95.10
53653;DHT22;39553;52.954;5.932;2022-07-06T12:59:32;20.70;94.50
53653;DHT22;39553;52.954;5.932;2022-07-06T13:01:59;20.60;94.40
53653;DHT22;39553;52.954;5.932;2022-07-06T13:04:26;20.40;94.50
53653;DHT22;39553;52.954;5.932;2022-07-06T13:06:52;20.30;94.70
53653;DHT22;39553;52.954;5.932;2022-07-06T13:09:18;20.10;94.70
53653;DHT22;39553;52.954;5.932;2022-07-06T13:11:48;20.00;95.30
53653;DHT22;39553;52.954;5.932;2022-07-06T13:14:15;19.90;95.80
53653;DHT22;39553;52.954;5.932;2022-07-06T13:16:42;19.90;95.90
53653;DHT22;39553;52.954;5.932;2022-07-06T13:19:08;19.90;96.10
53653;DHT22;39553;52.954;5.932;2022-07-06T13:21:35;20.00;95.90
53653;DHT22;39553;52.954;5.932;2022-07-06T13:24:01;19.90;96.10
53653;DHT22;39553;52.954;5.932;2022-07-06T13:26:27;19.90;96.20
53653;DHT22;39553;52.954;5.932;2022-07-06T13:28:53;19.90;96.40
53653;DHT22;39553;52.954;5.932;2022-07-06T13:31:18;19.90;96.70
53653;DHT22;39553;52.954;5.932;2022-07-06T13:33:44;19.90;96.50
53653;DHT22;39553;52.954;5.932;2022-07-06T13:36:10;19.80;96.90
53653;DHT22;39553;52.954;5.932;2022-07-06T13:38:36;19.80;96.80
53653;DHT22;39553;52.954;5.932;2022-07-06T13:41:01;19.70;97.30
53653;DHT22;39553;52.954;5.932;2022-07-06T13:43:27;19.60;97.20
53653;DHT22;39553;52.954;5.932;2022-07-06T13:46:06;19.60;97.50
53653;DHT22;39553;52.954;5.932;2022-07-06T13:48:33;19.50;98.10
53653;DHT22;39553;52.954;5.932;2022-07-06T13:50:59;19.40;98.00
53653;DHT22;39553;52.954;5.932;2022-07-06T13:53:25;19.40;98.10
53653;DHT22;39553;52.954;5.932;2022-07-06T13:55:51;19.40;98.20
53653;DHT22;39553;52.954;5.932;2022-07-06T13:58:17;19.40;98.30
53653;DHT22;39553;52.954;5.932;2022-07-06T14:00:43;19.50;98.60
53653;DHT22;39553;52.954;5.932;2022-07-06T14:03:09;19.40;98.50
53653;DHT22;39553;52.954;5.932;2022-07-06T14:05:35;19.30;98.50
53653;DHT22;39553;52.954;5.932;2022-07-06T14:08:01;19.20;98.30
53653;DHT22;39553;52.954;5.932;2022-07-06T14:10:27;19.20;98.80
53653;DHT22;39553;52.954;5.932;2022-07-06T14:12:53;19.20;99.20
53653;DHT22;39553;52.954;5.932;2022-07-06T14:15:19;19.00;99.90
53653;DHT22;39553;52.954;5.932;2022-07-06T14:17:46;18.60;99.90
53653;DHT22;39553;52.954;5.932;2022-07-06T14:20:13;18.50;99.90
53653;DHT22;39553;52.954;5.932;2022-07-06T14:22:39;18.50;99.90
53653;DHT22;39553;52.954;5.932;2022-07-06T14:25:05;18.50;99.90
53653;DHT22;39553;52.954;5.932;2022-07-06T14:27:33;18.70;99.90
53653;DHT22;39553;52.954;5.932;2022-07-06T14:29:58;18.80;99.90
53653;DHT22;39553;52.954;5.932;2022-07-06T14:32:24;19.00;99.90
53653;DHT22;39553;52.954;5.932;2022-07-06T14:34:50;19.00;99.90
53653;DHT22;39553;52.954;5.932;2022-07-06T14:37:16;19.00;99.90
53653;DHT22;39553;52.954;5.932;2022-07-06T14:39:41;18.90;99.90
53653;DHT22;39553;52.954;5.932;2022-07-06T14:42:08;18.90;99.90
53653;DHT22;39553;52.954;5.932;2022-07-06T14:44:33;18.70;99.90
53653;DHT22;39553;52.954;5.932;2022-07-06T14:46:59;18.40;99.90
53653;DHT22;39553;52.954;5.932;2022-07-06T14:49:25;18.20;99.90
53653;DHT22;39553;52.954;5.932;2022-07-06T14:51:50;18.00;99.90
53653;DHT22;39553;52.954;5.932;2022-07-06T14:54:16;17.90;99.90
53653;DHT22;39553;52.954;5.932;2022-07-06T14:56:42;17.90;99.90
53653;DHT22;39553;52.954;5.932;2022-07-06T14:59:08;17.70;99.90
53653;DHT22;39553;52.954;5.932;2022-07-06T15:01:34;17.60;99.90
53653;DHT22;39553;52.954;5.932;2022-07-06T15:03:59;17.50;99.90
53653;DHT22;39553;52.954;5.932;2022-07-06T15:06:25;17.40;99.90
53653;DHT22;39553;52.954;5.932;2022-07-06T15:08:51;17.10;99.90
53653;DHT22;39553;52.954;5.932;2022-07-06T15:11:17;16.80;99.90
53653;DHT22;39553;52.954;5.932;2022-07-06T15:13:42;16.60;99.90
53653;DHT22;39553;52.954;5.932;2022-07-06T15:16:08;16.50;99.90
53653;DHT22;39553;52.954;5.932;2022-07-06T15:18:34;16.40;99.90
53653;DHT22;39553;52.954;5.932;2022-07-06T15:21:01;16.50;99.90
53653;DHT22;39553;52.954;5.932;2022-07-06T15:23:27;16.60;99.90
53653;DHT22;39553;52.954;5.932;2022-07-06T15:25:54;16.60;99.90
53653;DHT22;39553;52.954;5.932;2022-07-06T15:28:21;16.80;99.90
53653;DHT22;39553;52.954;5.932;2022-07-06T15:30:46;16.90;99.90
53653;DHT22;39553;52.954;5.932;2022-07-06T15:33:12;17.00;99.90
53653;DHT22;39553;52.954;5.932;2022-07-06T15:35:38;17.10;99.90
53653;DHT22;39553;52.954;5.932;2022-07-06T15:38:03;17.20;99.90
53653;DHT22;39553;52.954;5.932;2022-07-06T15:40:35;17.10;99.90
53653;DHT22;39553;52.954;5.932;2022-07-06T15:43:06;17.20;99.90